Time;durP1;ratioP1;P1;durP2;ratioP2;P2;SDS_P1;SDS_P2;PMS_P1;PMS_P2;Temp;Humidity;BMP_temperature;BMP_pressure;BME280_temperature;BME280_humidity;BME280_pressure;Samples;Min_cycle;Max_cycle;Signal;HPM_P1;HPM_P2
2022/10/30 00:02:16;;;;;;;1999.90;999.90;;;;;;;10.94;100.00;98697.00;5112421;28;20026;-75
2022/10/30 00:04:42;;;;;;;1999.90;999.90;;;;;;;10.91;100.00;98692.09;5112117;28;20089;-74
2022/10/30 00:07:07;;;;;;;1999.90;999.90;;;;;;;11.02;100.00;98701.94;5112464;28;20043;-75
2022/10/30 00:09:32;;;;;;;1999.90;999.90;;;;;;;11.06;100.00;98701.06;5076893;28;20023;-75
2022/10/30 00:11:58;;;;;;;1999.90;999.90;;;;;;;11.06;100.00;98702.97;5112050;28;20081;-74
2022/10/30 00:14:23;;;;;;;1999.90;999.90;;;;;;;11.02;100.00;98700.00;5094194;28;20592;-75
2022/10/30 00:16:48;;;;;;;1999.90;999.90;;;;;;;11.09;100.00;98697.78;5090210;28;20039;-74
2022/10/30 00:19:14;;;;;;;1999.90;999.90;;;;;;;11.06;100.00;98692.03;5099653;28;20024;-74
2022/10/30 00:21:39;;;;;;;1999.90;999.90;;;;;;;11.08;100.00;98690.69;5091578;28;20469;-74
2022/10/30 00:24:06;;;;;;;1999.90;999.90;;;;;;;11.02;100.00;98686.31;5091151;28;20082;-74
2022/10/30 00:26:32;;;;;;;1999.90;999.90;;;;;;;10.98;100.00;98687.16;5111714;28;20027;-74
2022/10/30 00:28:57;;;;;;;1999.90;999.90;;;;;;;11.05;100.00;98679.47;5111543;28;20102;-75
2022/10/30 00:31:23;;;;;;;1999.90;999.90;;;;;;;10.97;100.00;98685.50;5111514;28;20027;-75
2022/10/30 00:33:53;;;;;;;1999.90;999.90;;;;;;;10.99;100.00;98683.31;5111482;28;20026;-73
2022/10/30 00:36:19;;;;;;;1999.90;999.90;;;;;;;11.03;100.00;98685.19;5092386;28;20076;-75
2022/10/30 00:38:44;;;;;;;1999.90;999.90;;;;;;;11.03;100.00;98684.38;5091063;28;20112;-74
2022/10/30 00:41:19;;;;;;;1999.90;999.90;;;;;;;11.02;100.00;98685.50;5072992;28;20062;-74
2022/10/30 00:43:45;;;;;;;1999.90;999.90;;;;;;;11.00;100.00;98684.94;5073173;28;20123;-75
2022/10/30 00:46:19;;;;;;;1999.90;999.90;;;;;;;11.01;100.00;98675.63;5091367;28;20032;-76
2022/10/30 00:48:51;;;;;;;1999.90;999.90;;;;;;;10.99;100.00;98680.59;5088082;28;20365;-75
2022/10/30 00:51:17;;;;;;;1999.90;999.90;;;;;;;11.03;100.00;98684.38;5091645;28;20031;-74
2022/10/30 00:53:44;;;;;;;1999.90;999.90;;;;;;;10.97;100.00;98678.13;5110886;28;20095;-75
2022/10/30 00:56:11;;;;;;;1999.90;999.90;;;;;;;11.03;100.00;98679.72;5092727;28;20028;-75
2022/10/30 00:58:48;;;;;;;1999.90;999.90;;;;;;;10.99;100.00;98683.31;5110529;28;20028;-74
2022/10/30 01:01:21;;;;;;;1999.90;999.90;;;;;;;11.03;100.00;98687.13;5111141;28;20088;-74
2022/10/30 01:03:51;;;;;;;1999.90;999.90;;;;;;;10.96;100.00;98676.50;5110869;28;20040;-73
2022/10/30 01:06:16;;;;;;;1999.90;999.90;;;;;;;11.00;100.00;98684.94;5111121;28;20031;-75
2022/10/30 01:08:43;;;;;;;1999.90;999.90;;;;;;;10.98;100.00;98687.16;5110680;28;20026;-75
2022/10/30 01:11:10;;;;;;;1999.90;999.90;;;;;;;10.87;100.00;98674.63;5092033;28;20032;-75
2022/10/30 01:13:38;;;;;;;1999.90;999.90;;;;;;;10.87;100.00;98680.88;5098924;28;20106;-75
2022/10/30 01:16:25;;;;;;;1999.90;999.90;;;;;;;10.96;100.00;98681.16;5117320;28;20032;-76
2022/10/30 01:19:11;;;;;;;1999.90;999.90;;;;;;;10.97;100.00;98680.03;5115398;28;20027;-74
2022/10/30 01:22:41;;;;;;;1999.90;999.90;;;;;;;10.94;100.00;98664.16;5093514;28;20457;-76
2022/10/30 01:25:34;;;;;;;1999.90;999.90;;;;;;;11.00;100.00;98679.47;5007700;28;20049;-75
2022/10/30 01:28:21;;;;;;;1999.90;999.90;;;;;;;10.95;100.00;98666.63;5011317;28;20034;-76
2022/10/30 01:31:08;;;;;;;1999.90;999.90;;;;;;;10.94;100.00;98669.63;5108550;28;20040;-74
2022/10/30 01:34:12;;;;;;;1999.90;999.90;;;;;;;10.95;100.00;98666.63;5111007;28;20040;-74
2022/10/30 01:36:44;;;;;;;1999.90;999.90;;;;;;;10.95;100.00;98663.91;5008175;28;20072;-75
2022/10/30 01:39:27;;;;;;;1999.90;999.90;;;;;;;11.01;100.00;98668.25;5093642;28;20038;-75
2022/10/30 01:41:53;;;;;;;1999.90;999.90;;;;;;;10.92;100.00;98658.97;5110982;28;20035;-74
2022/10/30 01:44:27;;;;;;;1999.90;999.90;;;;;;;10.88;100.00;98660.63;5111214;28;20100;-75
2022/10/30 01:47:10;;;;;;;1999.90;999.90;;;;;;;10.80;100.00;98655.75;5110768;28;20024;-75
2022/10/30 01:50:08;;;;;;;1999.90;999.90;;;;;;;10.70;100.00;98656.59;5092649;28;20455;-74
2022/10/30 01:52:54;;;;;;;1999.90;999.90;;;;;;;10.66;100.00;98658.25;5087457;28;20043;-74
2022/10/30 01:55:26;;;;;;;1999.90;999.90;;;;;;;10.62;100.00;98662.63;5110732;28;20081;-75
2022/10/30 01:58:02;;;;;;;1999.90;999.90;;;;;;;10.64;100.00;98660.47;5110691;28;20100;-74
2022/10/30 02:00:27;;;;;;;1999.90;999.90;;;;;;;10.62;100.00;98661.81;5111093;28;20073;-75
2022/10/30 02:02:53;;;;;;;1999.90;999.90;;;;;;;10.58;100.00;98661.56;5117117;28;20044;-78
2022/10/30 02:05:35;;;;;;;1999.90;999.90;;;;;;;10.59;100.00;98662.38;5112199;28;20043;-75
2022/10/30 02:08:00;;;;;;;1999.90;999.90;;;;;;;10.59;100.00;98652.25;5110793;28;20039;-74
2022/10/30 02:10:27;;;;;;;1999.90;999.90;;;;;;;10.57;100.00;98651.72;5110386;28;20096;-75
2022/10/30 02:12:52;;;;;;;1999.90;999.90;;;;;;;10.58;100.00;98652.53;5110614;28;20106;-76
2022/10/30 02:15:18;;;;;;;1999.90;999.90;;;;;;;10.61;100.00;98650.06;5110828;28;20556;-74
2022/10/30 02:17:44;;;;;;;1999.90;999.90;;;;;;;10.59;100.00;98645.94;5110445;28;20118;-75
2022/10/30 02:20:15;;;;;;;1999.90;999.90;;;;;;;10.60;100.00;98642.94;5110357;28;20023;-75
2022/10/30 02:22:41;;;;;;;1999.90;999.90;;;;;;;10.65;100.00;98645.66;5110425;28;20433;-74
2022/10/30 02:25:06;;;;;;;1999.90;999.90;;;;;;;10.66;100.00;98644.56;5113954;28;20138;-74
2022/10/30 02:27:32;;;;;;;1999.90;999.90;;;;;;;10.63;100.00;98641.56;5114121;28;20027;-74
2022/10/30 02:29:59;;;;;;;1999.90;999.90;;;;;;;10.64;100.00;98644.03;5113890;28;20492;-73
2022/10/30 02:32:24;;;;;;;1999.90;999.90;;;;;;;10.68;100.00;98644.31;5113868;28;20468;-73
2022/10/30 02:34:50;;;;;;;1999.90;999.90;;;;;;;10.62;100.00;98639.91;5113953;28;20027;-74
2022/10/30 02:37:15;;;;;;;1999.90;999.90;;;;;;;10.54;100.00;98635.84;5113979;28;20032;-73
2022/10/30 02:39:40;;;;;;;1999.90;999.90;;;;;;;10.47;100.00;98634.50;5113909;28;20111;-75
2022/10/30 02:42:06;;;;;;;1999.90;999.90;;;;;;;10.45;100.00;98629.31;5113887;28;20056;-75
2022/10/30 02:44:31;;;;;;;1999.90;999.90;;;;;;;10.48;100.00;98636.97;5095774;28;20031;-75
2022/10/30 02:46:57;;;;;;;1999.90;999.90;;;;;;;10.47;100.00;98635.31;5113922;28;20027;-75
2022/10/30 02:49:22;;;;;;;1999.90;999.90;;;;;;;10.41;100.00;98638.34;5113847;28;20031;-74
2022/10/30 02:51:47;;;;;;;1999.90;999.90;;;;;;;10.37;100.00;98632.59;5113914;28;20024;-74
2022/10/30 02:54:13;;;;;;;1999.90;999.90;;;;;;;10.47;100.00;98627.13;5113801;28;20173;-74
2022/10/30 02:56:41;;;;;;;1999.90;999.90;;;;;;;10.49;100.00;98627.69;5113620;28;20027;-73
2022/10/30 02:59:07;;;;;;;1999.90;999.90;;;;;;;10.47;100.00;98627.13;5112738;28;20024;-74
2022/10/30 03:01:32;;;;;;;1999.90;999.90;;;;;;;10.47;100.00;98626.28;5094676;28;20356;-74
2022/10/30 03:03:57;;;;;;;1999.90;999.90;;;;;;;10.45;100.00;98629.31;5112463;28;20126;-74
2022/10/30 03:06:23;;;;;;;1999.90;999.90;;;;;;;10.50;100.00;98629.31;5113541;28;20031;-75
2022/10/30 03:08:49;;;;;;;1999.90;999.90;;;;;;;10.51;100.00;98632.84;5113487;28;20032;-75
2022/10/30 03:11:17;;;;;;;1999.90;999.90;;;;;;;10.40;100.00;98637.53;5112582;28;20043;-74
2022/10/30 03:13:44;;;;;;;1999.90;999.90;;;;;;;10.41;100.00;98643.81;5113274;28;20016;-74
2022/10/30 03:16:18;;;;;;;1999.90;999.90;;;;;;;10.42;100.00;98638.09;5100045;28;20047;-74
2022/10/30 03:18:44;;;;;;;1999.90;999.90;;;;;;;10.37;100.00;98646.28;5092815;28;20125;-75
2022/10/30 03:21:12;;;;;;;1999.90;999.90;;;;;;;10.35;100.00;98634.00;5092818;28;20114;-76
2022/10/30 03:23:38;;;;;;;1999.90;999.90;;;;;;;10.36;100.00;98636.47;5093033;28;20028;-74
2022/10/30 03:26:03;;;;;;;1999.90;999.90;;;;;;;10.34;100.00;98635.91;5074496;28;20035;-74
2022/10/30 03:28:30;;;;;;;1999.90;999.90;;;;;;;10.34;100.00;98637.84;5092580;28;20031;-73
2022/10/30 03:31:00;;;;;;;1999.90;999.90;;;;;;;10.20;100.00;98632.94;5092539;28;20035;-74
2022/10/30 03:33:26;;;;;;;1999.90;999.90;;;;;;;10.26;100.00;98641.13;5092425;28;20024;-76
2022/10/30 03:35:51;;;;;;;1999.90;999.90;;;;;;;10.34;100.00;98633.16;5092261;28;20028;-76
2022/10/30 03:38:16;;;;;;;1999.90;999.90;;;;;;;10.36;100.00;98630.16;5092382;28;20051;-76
2022/10/30 03:40:42;;;;;;;1999.90;999.90;;;;;;;10.35;100.00;98645.75;5074363;28;20027;-75
2022/10/30 03:43:07;;;;;;;1999.90;999.90;;;;;;;10.33;100.00;98633.47;5092121;28;20051;-75
2022/10/30 03:45:34;;;;;;;1999.90;999.90;;;;;;;10.34;100.00;98633.16;5092551;28;20121;-74
2022/10/30 03:48:00;;;;;;;1999.90;999.90;;;;;;;10.34;100.00;98633.16;5092026;28;20072;-75
2022/10/30 03:50:26;;;;;;;1999.90;999.90;;;;;;;10.34;100.00;98635.91;5092201;28;20031;-75
2022/10/30 03:52:53;;;;;;;1999.90;999.90;;;;;;;10.29;100.00;98635.94;5091821;28;20487;-74
2022/10/30 03:55:18;;;;;;;1999.90;999.90;;;;;;;10.38;100.00;98634.25;5073905;28;20060;-74
2022/10/30 03:57:43;;;;;;;1999.90;999.90;;;;;;;10.37;100.00;98638.09;5091672;28;20051;-74
2022/10/30 04:00:10;;;;;;;1999.90;999.90;;;;;;;10.26;100.00;98632.91;5091990;28;20028;-75
2022/10/30 04:02:35;;;;;;;1999.90;999.90;;;;;;;10.31;100.00;98638.38;5091641;28;20481;-74
2022/10/30 04:05:01;;;;;;;1999.90;999.90;;;;;;;10.27;100.00;98638.13;5091748;28;20085;-74
2022/10/30 04:07:26;;;;;;;1999.90;999.90;;;;;;;10.25;100.00;98634.81;5091945;28;20039;-76
2022/10/30 04:09:51;;;;;;;1999.90;999.90;;;;;;;10.33;100.00;98642.50;5092682;28;20123;-75
2022/10/30 04:12:17;;;;;;;1999.90;999.90;;;;;;;10.27;100.00;98635.38;5080433;28;21037;-81
2022/10/30 04:14:42;;;;;;;1999.90;999.90;;;;;;;10.17;100.00;98635.41;5096294;28;20089;-75
2022/10/30 04:17:07;;;;;;;1999.90;999.90;;;;;;;10.06;100.00;98639.19;5074003;28;20038;-75
2022/10/30 04:19:33;;;;;;;1999.90;999.90;;;;;;;10.09;100.00;98631.28;5091574;28;20032;-74
2022/10/30 04:21:58;;;;;;;1999.90;999.90;;;;;;;10.27;100.00;98629.94;5073408;28;20016;-75
2022/10/30 04:24:23;;;;;;;1999.90;999.90;;;;;;;10.30;100.00;98637.56;5073349;28;20111;-75
2022/10/30 04:26:49;;;;;;;1999.90;999.90;;;;;;;10.32;100.00;98638.09;5091352;28;20052;-75
2022/10/30 04:29:14;;;;;;;1999.90;999.90;;;;;;;10.26;100.00;98633.75;5091819;28;20027;-75
2022/10/30 04:31:39;;;;;;;1999.90;999.90;;;;;;;10.23;100.00;98637.03;5091529;28;20051;-75
2022/10/30 04:34:05;;;;;;;1999.90;999.90;;;;;;;10.32;100.00;98631.81;5073092;28;20035;-75
2022/10/30 04:36:32;;;;;;;1999.90;999.90;;;;;;;10.40;100.00;98632.06;5091517;28;20052;-74
2022/10/30 04:38:58;;;;;;;1999.90;999.90;;;;;;;10.40;100.00;98632.06;5073060;28;20024;-74
2022/10/30 04:41:24;;;;;;;1999.90;999.90;;;;;;;10.40;100.00;98631.25;5091108;28;20032;-75
2022/10/30 04:43:50;;;;;;;1999.90;999.90;;;;;;;10.36;100.00;98628.25;5091139;28;20035;-75
2022/10/30 04:46:16;;;;;;;1999.90;999.90;;;;;;;10.36;100.00;98619.22;5090398;28;20060;-74
2022/10/30 04:48:41;;;;;;;1999.90;999.90;;;;;;;10.30;100.00;98623.91;5092632;28;20055;-75
2022/10/30 04:51:08;;;;;;;1999.90;999.90;;;;;;;10.32;100.00;98627.16;5092656;28;20036;-73
2022/10/30 04:53:33;;;;;;;1999.90;999.90;;;;;;;10.33;100.00;98628.00;5101582;28;20020;-73
2022/10/30 04:55:59;;;;;;;1999.90;999.90;;;;;;;10.19;100.00;98627.72;5090818;28;20046;-75
2022/10/30 04:58:24;;;;;;;1999.90;999.90;;;;;;;10.28;100.00;98627.97;5072622;28;20020;-75
2022/10/30 05:00:49;;;;;;;1999.90;999.90;;;;;;;10.16;100.00;98620.09;5090646;28;20038;-74
2022/10/30 05:03:18;;;;;;;1999.90;999.90;;;;;;;10.07;100.00;98621.72;5072378;28;20122;-75
2022/10/30 05:05:47;;;;;;;1999.90;999.90;;;;;;;10.12;100.00;98618.97;5099888;28;20052;-75
2022/10/30 05:08:13;;;;;;;1999.90;999.90;;;;;;;10.06;100.00;98620.06;5111179;28;20412;-75
2022/10/30 05:10:41;;;;;;;1999.90;999.90;;;;;;;10.09;100.00;98624.97;5110534;28;20019;-75
2022/10/30 05:13:09;;;;;;;1999.90;999.90;;;;;;;10.10;100.00;98618.44;5110904;28;20361;-74
2022/10/30 05:15:34;;;;;;;1999.90;999.90;;;;;;;10.09;100.00;98619.50;5111177;28;20473;-75
2022/10/30 05:18:00;;;;;;;1999.90;999.90;;;;;;;10.02;100.00;98621.72;5110811;28;20043;-74
2022/10/30 05:20:25;;;;;;;1999.90;999.90;;;;;;;10.10;100.00;98612.97;5111017;28;20111;-75
2022/10/30 05:22:55;;;;;;;1999.90;999.90;;;;;;;10.12;100.00;98616.22;5092496;28;20015;-75
2022/10/30 05:25:20;;;;;;;1999.90;999.90;;;;;;;10.25;100.00;98610.22;5110604;28;20029;-75
2022/10/30 05:27:46;;;;;;;1999.90;999.90;;;;;;;10.31;100.00;98605.56;5110820;28;20385;-75
2022/10/30 05:30:12;;;;;;;1999.90;999.90;;;;;;;10.29;100.00;98607.75;5112226;28;20107;-81
2022/10/30 05:32:37;;;;;;;1999.90;999.90;;;;;;;10.32;100.00;98612.66;5111706;28;20016;-78
2022/10/30 05:35:03;;;;;;;1999.90;999.90;;;;;;;10.36;100.00;98611.84;5115681;28;20126;-76
2022/10/30 05:37:28;;;;;;;1999.90;999.90;;;;;;;10.33;100.00;98615.13;5111520;28;20076;-75
2022/10/30 05:39:53;;;;;;;1999.90;999.90;;;;;;;10.36;100.00;98620.06;5092044;28;20066;-77
2022/10/30 05:42:18;;;;;;;1999.90;999.90;;;;;;;10.29;100.00;98614.03;5101180;28;20024;-75
2022/10/30 05:44:44;;;;;;;1999.90;999.90;;;;;;;10.18;100.00;98615.97;5093809;28;20480;-79
2022/10/30 05:47:10;;;;;;;1999.90;999.90;;;;;;;10.18;100.00;98617.88;5081710;28;20052;-78
2022/10/30 05:49:36;;;;;;;1999.90;999.90;;;;;;;10.32;100.00;98612.66;5099440;28;20033;-81
2022/10/30 05:52:01;;;;;;;1999.90;999.90;;;;;;;10.25;100.00;98626.63;5094917;28;20121;-74
2022/10/30 05:54:26;;;;;;;1999.90;999.90;;;;;;;10.18;100.00;98626.09;5090419;28;20134;-75
2022/10/30 05:56:52;;;;;;;1999.90;999.90;;;;;;;10.22;100.00;98624.44;5090731;28;20060;-75
2022/10/30 05:59:17;;;;;;;1999.90;999.90;;;;;;;10.23;100.00;98609.69;5094140;28;20433;-77
2022/10/30 06:01:42;;;;;;;1999.90;999.90;;;;;;;10.32;100.00;98618.97;5094043;28;20024;-75
2022/10/30 06:04:08;;;;;;;1999.90;999.90;;;;;;;10.41;100.00;98621.94;5093723;28;20516;-78
2022/10/30 06:06:33;;;;;;;1999.90;999.90;;;;;;;10.39;100.00;98622.22;5094519;28;20034;-75
2022/10/30 06:08:58;;;;;;;1999.90;999.90;;;;;;;10.43;100.00;98622.50;5094087;28;20115;-77
2022/10/30 06:11:24;;;;;;;1999.90;999.90;;;;;;;10.39;100.00;98616.75;5093698;28;20037;-75
2022/10/30 06:13:49;;;;;;;1999.90;999.90;;;;;;;10.43;100.00;98620.56;5093684;28;20115;-75
2022/10/30 06:16:15;;;;;;;1999.90;999.90;;;;;;;10.50;100.00;98623.81;5076741;28;20024;-78
2022/10/30 06:18:40;;;;;;;1999.90;999.90;;;;;;;10.53;100.00;98620.53;5093935;28;20412;-75
2022/10/30 06:21:05;;;;;;;1999.90;999.90;;;;;;;10.45;100.00;98623.03;5096885;28;20032;-80
2022/10/30 06:23:30;;;;;;;1999.90;999.90;;;;;;;10.49;100.00;98627.69;5085302;28;20027;-78
2022/10/30 06:25:56;;;;;;;1999.90;999.90;;;;;;;10.48;100.00;98620.56;5078306;28;20437;-78
2022/10/30 06:28:21;;;;;;;1999.90;999.90;;;;;;;10.50;100.00;98621.09;5114472;28;20031;-75
2022/10/30 06:30:46;;;;;;;1999.90;999.90;;;;;;;10.50;100.00;98633.94;5114022;28;20046;-75
2022/10/30 06:33:12;;;;;;;1999.90;999.90;;;;;;;10.52;100.00;98624.38;5113919;28;20032;-78
2022/10/30 06:35:37;;;;;;;1999.90;999.90;;;;;;;10.56;100.00;98633.66;5114155;28;20069;-76
2022/10/30 06:38:03;;;;;;;1999.90;999.90;;;;;;;10.46;100.00;98630.16;5113407;28;20106;-81
2022/10/30 06:40:29;;;;;;;1999.90;999.90;;;;;;;10.49;100.00;98635.88;5113511;28;20024;-76
2022/10/30 06:42:55;;;;;;;1999.90;999.90;;;;;;;10.46;100.00;98641.88;5095144;28;20040;-75
2022/10/30 06:45:22;;;;;;;1999.90;999.90;;;;;;;10.60;100.00;98644.88;5114151;28;20024;-75
2022/10/30 06:47:48;;;;;;;1999.90;999.90;;;;;;;10.68;100.00;98641.56;5114216;28;20024;-75
2022/10/30 06:50:16;;;;;;;1999.90;999.90;;;;;;;10.67;100.00;98639.91;5114322;28;20024;-76
2022/10/30 06:52:42;;;;;;;1999.90;999.90;;;;;;;10.63;100.00;98642.41;5113800;28;20035;-78
2022/10/30 06:55:09;;;;;;;1999.90;999.90;;;;;;;10.63;100.00;98642.41;5088574;28;20020;-75
2022/10/30 06:57:34;;;;;;;1999.90;999.90;;;;;;;10.68;100.00;98638.84;5075896;28;20056;-75
2022/10/30 06:59:59;;;;;;;1999.90;999.90;;;;;;;10.74;100.00;98643.19;5096805;28;20100;-77
2022/10/30 07:02:25;;;;;;;1999.90;999.90;;;;;;;10.85;100.00;98643.94;5115120;28;20108;-76
2022/10/30 07:04:50;;;;;;;1999.90;999.90;;;;;;;10.86;100.00;98645.59;5112690;28;20658;-76
2022/10/30 07:07:16;;;;;;;1999.90;999.90;;;;;;;10.77;100.00;98642.63;5112662;28;20054;-77
2022/10/30 07:09:42;;;;;;;1999.90;999.90;;;;;;;10.74;100.00;98654.13;5112332;28;20023;-75
2022/10/30 07:12:08;;;;;;;1999.90;999.90;;;;;;;10.68;100.00;98650.56;5113259;28;20062;-75
2022/10/30 07:14:34;;;;;;;1999.90;999.90;;;;;;;10.67;100.00;98648.97;5113351;28;20028;-75
2022/10/30 07:16:59;;;;;;;1999.90;999.90;;;;;;;10.51;100.00;98649.28;5113617;28;20055;-74
2022/10/30 07:19:25;;;;;;;1999.90;999.90;;;;;;;10.53;100.00;98647.88;5113138;28;20056;-75
2022/10/30 07:21:50;;;;;;;1999.90;999.90;;;;;;;10.60;100.00;98653.06;5112951;28;20015;-75
2022/10/30 07:24:15;;;;;;;1999.90;999.90;;;;;;;10.72;100.00;98648.09;5113464;28;20580;-76
2022/10/30 07:26:41;;;;;;;1999.90;999.90;;;;;;;10.71;100.00;98649.22;5107593;28;20389;-74
2022/10/30 07:29:07;;;;;;;1999.90;999.90;;;;;;;10.72;100.00;98657.13;5097558;28;20366;-75
2022/10/30 07:31:32;;;;;;;1999.90;999.90;;;;;;;10.79;100.00;98661.50;5083311;28;20469;-76
2022/10/30 07:33:57;;;;;;;1999.90;999.90;;;;;;;10.84;100.00;98654.06;5097333;28;20016;-74
2022/10/30 07:36:23;;;;;;;1999.90;999.90;;;;;;;10.81;100.00;98660.09;5103475;28;20030;-77
2022/10/30 07:38:49;;;;;;;1999.90;999.90;;;;;;;10.93;100.00;98659.81;5097402;28;20035;-74
2022/10/30 07:41:17;;;;;;;1999.90;999.90;;;;;;;11.06;100.00;98657.25;5092337;28;20023;-75
2022/10/30 07:43:42;;;;;;;1999.90;999.90;;;;;;;11.11;100.00;98659.19;5092459;28;20054;-76
2022/10/30 07:46:07;;;;;;;1999.90;999.90;;;;;;;11.14;100.00;98669.56;5092727;28;20114;-74
2022/10/30 07:48:33;;;;;;;1999.90;999.90;;;;;;;11.21;100.00;98656.38;5092618;28;20039;-76
2022/10/30 07:50:58;;;;;;;1999.90;999.90;;;;;;;11.21;100.00;98659.91;5075021;28;20540;-74
2022/10/30 07:53:23;;;;;;;1999.90;999.90;;;;;;;11.19;100.00;98653.09;5097200;28;20032;-76
2022/10/30 07:55:49;;;;;;;1999.90;999.90;;;;;;;11.17;100.00;98663.53;5101970;28;20153;-74
2022/10/30 07:58:14;;;;;;;1999.90;999.90;;;;;;;11.24;100.00;98658.56;5092265;28;20084;-77
2022/10/30 08:00:39;;;;;;;1999.90;999.90;;;;;;;11.12;100.00;98661.63;5081368;28;20123;-75
2022/10/30 08:03:05;;;;;;;1999.90;999.90;;;;;;;11.39;100.00;98663.94;5087009;28;20044;-79
2022/10/30 08:05:30;;;;;;;1999.90;999.90;;;;;;;11.41;100.00;98653.53;5113578;28;20055;-75
2022/10/30 08:07:56;;;;;;;1999.90;999.90;;;;;;;11.59;100.00;98660.28;5113150;28;20524;-81
2022/10/30 08:10:21;;;;;;;1999.90;999.90;;;;;;;11.69;100.00;98661.00;5112234;28;20101;-78
2022/10/30 08:12:47;;;;;;;1999.90;999.90;;;;;;;11.59;100.00;98660.28;5117376;28;20023;-84
2022/10/30 08:15:12;;;;;;;1999.90;999.90;;;;;;;11.56;100.00;98660.84;5097505;28;20023;-78
2022/10/30 08:17:46;;;;;;;1999.90;999.90;;;;;;;11.45;100.00;98653.78;5094350;28;20049;-75
2022/10/30 08:20:14;;;;;;;1999.90;999.90;;;;;;;11.43;100.00;98654.06;5093648;28;20031;-75
2022/10/30 08:22:57;;;;;;;1999.90;999.90;;;;;;;11.40;100.00;98654.63;5093139;28;20031;-74
2022/10/30 08:25:26;;;;;;;1999.90;999.90;;;;;;;11.38;100.00;98664.22;5112559;28;20035;-76
2022/10/30 08:28:10;;;;;;;1999.90;999.90;;;;;;;11.45;100.00;98665.56;5112374;28;20073;-77
2022/10/30 08:30:36;;;;;;;1999.90;999.90;;;;;;;11.63;100.00;98650.34;5112821;28;20065;-78
2022/10/30 08:33:05;;;;;;;1999.90;999.90;;;;;;;11.71;100.00;98653.38;5120255;28;20083;-75
2022/10/30 08:35:31;;;;;;;1999.90;999.90;;;;;;;11.90;100.00;98655.41;5112606;28;20039;-77
2022/10/30 08:37:58;;;;;;;1999.90;999.90;;;;;;;12.18;100.00;98654.63;5091855;28;20032;-76
2022/10/30 08:40:24;;;;;;;1999.90;999.90;;;;;;;12.32;100.00;98655.56;5111754;28;20757;-74
2022/10/30 08:42:54;;;;;;;1999.90;999.90;;;;;;;12.25;100.00;98655.06;5111687;28;20484;-76
2022/10/30 08:45:21;;;;;;;1999.90;999.90;;;;;;;12.23;100.00;98654.56;5111018;28;20040;-74
2022/10/30 08:47:47;;;;;;;1999.90;999.90;;;;;;;12.17;100.00;98647.47;5099401;28;20472;-74
2022/10/30 08:50:12;;;;;;;1999.90;999.90;;;;;;;12.20;100.00;98652.38;5099208;28;20016;-75
2022/10/30 08:52:37;;;;;;;1999.90;999.90;;;;;;;12.34;100.00;98654.16;5100974;28;20076;-75
2022/10/30 08:55:03;;;;;;;1999.90;999.90;;;;;;;12.68;100.00;98639.56;5100874;28;20024;-75
2022/10/30 08:57:34;;;;;;;1999.90;999.90;;;;;;;12.90;100.00;98646.13;5098982;28;20102;-75
2022/10/30 09:00:00;;;;;;;1999.90;999.90;;;;;;;12.96;100.00;98646.06;5099548;28;20028;-75
2022/10/30 09:02:25;;;;;;;1999.90;999.90;;;;;;;12.84;100.00;98641.00;5099015;28;20020;-75
2022/10/30 09:04:50;;;;;;;1999.90;999.90;;;;;;;12.82;100.00;98635.81;5098476;28;20090;-74
2022/10/30 09:07:15;;;;;;;1999.90;999.90;;;;;;;13.07;100.00;98636.59;5075151;28;20028;-77
2022/10/30 09:09:41;;;;;;;1999.90;999.90;;;;;;;13.05;100.00;98644.31;5095414;28;20443;-74
2022/10/30 09:12:06;;;;;;;1999.90;999.90;;;;;;;13.31;100.00;98634.66;5085100;28;20019;-74
2022/10/30 09:14:31;;;;;;;1999.90;999.90;;;;;;;13.38;100.00;98635.09;5107740;28;20036;-75
2022/10/30 09:16:57;;;;;;;1999.90;999.90;;;;;;;13.63;100.00;98640.22;5110587;28;20472;-75
2022/10/30 09:19:23;;;;;;;1999.90;999.90;;;;;;;13.80;100.00;98631.44;5111404;28;20063;-77
2022/10/30 09:21:48;;;;;;;1999.90;999.90;;;;;;;14.16;100.00;98639.94;5107856;28;20118;-75
2022/10/30 09:24:13;;;;;;;1999.90;999.90;;;;;;;14.55;100.00;98640.31;5092164;28;20141;-76
2022/10/30 09:26:39;;;;;;;1999.90;999.90;;;;;;;14.64;100.00;98634.91;5090151;28;20043;-76
2022/10/30 09:29:04;;;;;;;1999.90;999.90;;;;;;;14.85;100.00;98645.22;5090063;28;20039;-76
2022/10/30 09:31:29;;;;;;;1999.90;999.90;;;;;;;15.13;100.00;98639.72;5090268;28;20031;-75
2022/10/30 09:33:55;;;;;;;1999.90;999.90;;;;;;;15.15;100.00;98642.97;5094121;28;20027;-76
2022/10/30 09:36:20;;;;;;;1999.90;999.90;;;;;;;14.94;100.00;98639.84;5092722;28;20102;-77
2022/10/30 09:38:45;;;;;;;1999.90;999.90;;;;;;;15.15;100.00;98640.22;5094973;28;20028;-75
2022/10/30 09:41:22;;;;;;;1999.90;999.90;;;;;;;15.74;100.00;98634.50;5076147;28;20035;-76
2022/10/30 09:44:21;;;;;;;1999.90;999.90;;;;;;;17.15;100.00;98643.75;5094117;28;20477;-76
2022/10/30 09:47:11;;;;;;;1999.90;999.90;;;;;;;18.89;100.00;98649.72;5094629;28;20076;-75
2022/10/30 09:49:43;;;;;;;1999.90;999.90;;;;;;;20.39;100.00;98647.72;5094323;28;20488;-76
2022/10/30 09:52:20;;;;;;;1999.90;999.90;;;;;;;20.77;100.00;98650.22;5076217;28;20119;-76
2022/10/30 09:55:04;;;;;;;1999.90;999.90;;;;;;;20.69;100.00;98649.19;5093896;28;20085;-75
2022/10/30 09:57:55;;;;;;;1999.90;999.90;;;;;;;20.91;100.00;98644.34;5094144;28;20035;-73
2022/10/30 10:00:26;;;;;;;1999.90;999.90;;;;;;;21.82;90.30;98640.94;5062496;28;20101;-74
2022/10/30 10:03:25;;;;;;;1999.90;999.90;;;;;;;21.29;90.31;98636.50;5090364;28;20075;-76
2022/10/30 10:05:54;;;;;;;1999.90;999.90;;;;;;;21.42;87.93;98637.31;5111828;28;20027;-75
2022/10/30 10:08:32;;;;;;;1999.90;999.90;;;;;;;21.86;85.76;98633.50;5107779;28;20135;-76
2022/10/30 10:11:03;;;;;;;1999.90;999.90;;;;;;;21.52;86.20;98631.28;5105901;28;20035;-73
2022/10/30 10:13:52;;;;;;;1999.90;999.90;;;;;;;22.03;80.34;98630.47;5094946;28;20035;-74
2022/10/30 10:16:20;;;;;;;1999.90;999.90;;;;;;;22.06;78.40;98629.75;5099469;28;20032;-76
2022/10/30 10:18:47;;;;;;;1999.90;999.90;;;;;;;22.37;77.26;98627.06;5105512;28;20055;-75
2022/10/30 10:21:35;;;;;;;1999.90;999.90;;;;;;;23.41;71.24;98623.00;5111341;28;20037;-74
2022/10/30 10:24:03;;;;;;;1999.90;999.90;;;;;;;23.38;70.31;98630.09;5102343;28;20145;-75
2022/10/30 10:27:16;;;;;;;1999.90;999.90;;;;;;;22.18;76.79;98615.75;5103555;28;20036;-74
2022/10/30 10:30:01;;;;;;;1999.90;999.90;;;;;;;22.12;76.08;98614.41;5086353;28;20039;-74
2022/10/30 10:32:33;;;;;;;1999.90;999.90;;;;;;;23.10;71.83;98626.59;5082092;28;20400;-74
2022/10/30 10:35:36;;;;;;;1999.90;999.90;;;;;;;23.23;71.98;98616.16;5100716;28;20028;-74
2022/10/30 10:38:26;;;;;;;1999.90;999.90;;;;;;;23.53;68.47;98611.69;5014298;28;20108;-74
2022/10/30 10:41:21;;;;;;;1999.90;999.90;;;;;;;24.04;65.54;98615.22;5100627;28;20138;-74
2022/10/30 10:44:11;;;;;;;1999.90;999.90;;;;;;;23.45;67.01;98604.34;5100431;28;20115;-75
2022/10/30 10:46:36;;;;;;;1999.90;999.90;;;;;;;23.95;63.97;98607.06;5105553;28;20031;-74
2022/10/30 10:49:20;;;;;;;1999.90;999.90;;;;;;;23.49;64.24;98596.06;5104680;28;20032;-73
2022/10/30 10:51:54;;;;;;;1999.90;999.90;;;;;;;23.38;65.90;98604.16;5077385;28;20024;-75
2022/10/30 10:54:27;;;;;;;1999.90;999.90;;;;;;;22.20;70.97;98593.13;5106162;28;20511;-74
2022/10/30 10:56:54;;;;;;;1999.90;999.90;;;;;;;22.46;69.48;98587.06;5102885;28;20028;-73